Time;durP1;ratioP1;P1;durP2;ratioP2;P2;SDS_P1;SDS_P2;PMS_P1;PMS_P2;Temp;Humidity;BMP_temperature;BMP_pressure;BME280_temperature;BME280_humidity;BME280_pressure;Samples;Min_cycle;Max_cycle;Signal;HPM_P1;HPM_P2
2021/07/16 00:00:29;;;;;;;4.93;4.18;;;;;;;15.62;54.23;95648.38;5008567;28;20064;-67
2021/07/16 00:02:55;;;;;;;;;;;;;;;15.70;53.72;95652.69;5008306;28;20042;-67
2021/07/16 00:05:20;;;;;;;4.93;4.00;;;;;;;15.55;54.01;95648.38;5007794;28;20168;-67
2021/07/16 00:07:46;;;;;;;6.00;4.60;;;;;;;15.45;54.85;95662.22;5008147;28;20084;-67
2021/07/16 00:10:14;;;;;;;6.13;4.72;;;;;;;15.38;55.06;95653.34;5007844;28;20096;-67
2021/07/16 00:12:39;;;;;;;5.78;4.60;;;;;;;15.75;53.88;95651.00;5008125;28;20030;-67
2021/07/16 00:15:05;;;;;;;7.80;4.82;;;;;;;15.83;52.79;95649.16;5007564;28;20137;-67
2021/07/16 00:17:31;;;;;;;6.00;5.18;;;;;;;15.61;54.83;95655.59;5005334;28;20112;-67
2021/07/16 00:19:56;;;;;;;5.47;4.47;;;;;;;15.72;53.83;95648.78;5008493;28;20033;-67
2021/07/16 00:22:22;;;;;;;10.55;7.95;;;;;;;15.69;54.38;95651.03;4994992;28;20053;-67
2021/07/16 00:24:48;;;;;;;7.03;4.90;;;;;;;15.82;54.13;95645.66;5008014;28;20040;-67
2021/07/16 00:27:13;;;;;;;6.50;4.97;;;;;;;16.03;53.61;95648.25;5007401;28;20042;-67
2021/07/16 00:29:39;;;;;;;8.73;5.30;;;;;;;16.30;52.36;95645.47;5007386;28;20115;-67
2021/07/16 00:32:05;;;;;;;6.47;4.85;;;;;;;16.28;51.54;95642.19;5006266;28;20092;-67
2021/07/16 00:34:30;;;;;;;8.45;5.10;;;;;;;16.38;52.24;95650.63;5008005;28;20233;-67
2021/07/16 00:36:56;;;;;;;12.40;6.22;;;;;;;16.29;52.48;95657.25;5008214;28;20387;-67
2021/07/16 00:39:21;;;;;;;7.88;6.45;;;;;;;16.20;53.05;95660.19;5007600;28;20061;-68
2021/07/16 00:41:47;;;;;;;7.50;5.57;;;;;;;16.28;52.75;95663.66;5006240;28;20038;-67
2021/07/16 00:44:12;;;;;;;6.43;5.22;;;;;;;16.32;52.39;95663.00;5007901;28;20040;-67
2021/07/16 00:46:38;;;;;;;11.65;6.65;;;;;;;16.15;53.33;95669.91;5006080;28;20471;-67
2021/07/16 00:49:04;;;;;;;12.77;6.75;;;;;;;15.95;53.87;95670.81;5007859;28;20081;-67
2021/07/16 00:51:29;;;;;;;8.18;5.75;;;;;;;15.72;55.26;95669.41;5007127;28;20071;-67
2021/07/16 00:53:55;;;;;;;10.48;7.60;;;;;;;15.63;55.61;95668.00;5005973;28;20053;-67
2021/07/16 00:56:20;;;;;;;8.85;7.15;;;;;;;15.65;55.42;95680.16;5007494;28;20084;-67
2021/07/16 00:58:46;;;;;;;13.73;7.75;;;;;;;16.01;55.31;95672.63;5007222;28;20383;-67
2021/07/16 01:01:11;;;;;;;9.32;6.57;;;;;;;16.29;54.33;95673.38;5007174;28;20042;-67
2021/07/16 01:03:36;;;;;;;9.90;7.32;;;;;;;16.08;55.00;95678.81;5007869;28;20042;-67
2021/07/16 01:06:02;;;;;;;10.02;7.15;;;;;;;16.59;53.06;95670.97;5007189;28;20058;-67
2021/07/16 01:08:28;;;;;;;10.52;7.28;;;;;;;16.55;53.50;95671.63;5007751;28;20054;-67
2021/07/16 01:10:55;;;;;;;9.35;7.38;;;;;;;16.17;54.31;95673.19;5007042;28;20065;-67
2021/07/16 01:13:20;;;;;;;10.00;7.50;;;;;;;16.23;54.36;95675.03;5005949;28;20070;-67
2021/07/16 01:15:46;;;;;;;8.48;6.30;;;;;;;16.22;53.57;95668.84;5007072;28;20030;-67
2021/07/16 01:18:11;;;;;;;9.48;8.00;;;;;;;16.30;53.65;95661.56;5005629;28;20111;-67
2021/07/16 01:20:37;;;;;;;8.98;6.43;;;;;;;16.30;53.39;95664.25;5006132;28;20037;-67
2021/07/16 01:23:18;;;;;;;12.48;7.05;;;;;;;16.49;53.19;95667.94;4995685;28;20192;-68
2021/07/16 01:25:44;;;;;;;11.60;7.45;;;;;;;16.37;53.13;95673.16;5005720;28;20556;-67
2021/07/16 01:28:09;;;;;;;17.50;8.70;;;;;;;16.29;53.57;95673.38;5007395;28;20038;-67
2021/07/16 01:30:34;;;;;;;12.00;7.47;;;;;;;16.31;52.46;95679.38;5007233;28;20046;-67
2021/07/16 01:33:01;;;;;;;10.32;8.15;;;;;;;16.58;53.60;95680.06;5007636;28;20076;-67
2021/07/16 01:35:27;;;;;;;13.77;9.13;;;;;;;16.39;54.38;95687.22;5006752;28;20096;-67
2021/07/16 01:37:52;;;;;;;14.45;9.70;;;;;;;16.00;55.56;95687.94;5007279;28;20030;-67
2021/07/16 01:40:19;;;;;;;14.70;9.75;;;;;;;15.51;57.00;95689.22;4989598;28;20033;-67
2021/07/16 01:42:46;;;;;;;10.40;7.32;;;;;;;15.69;54.81;95683.25;5009669;28;20037;-67
2021/07/16 01:45:16;;;;;;;15.68;10.10;;;;;;;15.99;55.82;95688.13;5010397;28;20558;-67
2021/07/16 01:47:48;;;;;;;11.20;7.90;;;;;;;16.10;54.31;95684.81;5010776;28;20053;-67
2021/07/16 01:50:14;;;;;;;10.95;8.10;;;;;;;16.32;53.38;95694.44;5010172;28;20842;-67
2021/07/16 01:52:39;;;;;;;11.40;8.90;;;;;;;16.12;54.12;95696.13;5010250;28;20029;-67
2021/07/16 01:55:05;;;;;;;14.98;10.32;;;;;;;16.13;54.79;95689.75;4992106;28;20053;-67
2021/07/16 01:57:30;;;;;;;13.50;9.38;;;;;;;16.20;53.77;95686.19;5010435;28;20077;-67
2021/07/16 01:59:56;;;;;;;14.93;10.95;;;;;;;16.16;55.28;95685.81;5010476;28;20131;-67
2021/07/16 02:02:21;;;;;;;16.35;9.60;;;;;;;15.91;55.61;95681.13;5009004;28;20067;-67
2021/07/16 02:04:47;;;;;;;13.70;9.73;;;;;;;16.04;55.64;95684.81;5010113;28;20037;-67
2021/07/16 02:07:12;;;;;;;16.52;10.68;;;;;;;15.88;56.10;95674.31;5010214;28;20104;-67
2021/07/16 02:09:37;;;;;;;12.43;8.75;;;;;;;15.63;54.82;95687.59;5010235;28;20034;-67
2021/07/16 02:12:04;;;;;;;16.33;9.48;;;;;;;15.92;54.02;95684.66;5010851;28;20422;-67
2021/07/16 02:14:29;;;;;;;12.63;9.98;;;;;;;16.00;54.56;95684.41;5010245;28;20111;-67
2021/07/16 02:16:55;;;;;;;13.13;10.23;;;;;;;15.66;55.79;95686.34;5007321;28;20447;-67
2021/07/16 02:19:21;;;;;;;14.80;9.80;;;;;;;15.96;53.20;95680.50;5007443;28;20583;-67
2021/07/16 02:21:46;;;;;;;13.68;10.30;;;;;;;15.71;54.53;95682.00;5010218;28;20037;-67
2021/07/16 02:24:12;;;;;;;12.85;9.13;;;;;;;15.93;53.38;95683.59;5010559;28;20033;-67
2021/07/16 02:26:37;;;;;;;12.93;9.75;;;;;;;15.97;54.02;95682.13;5010214;28;20042;-67
2021/07/16 02:29:04;;;;;;;13.77;9.63;;;;;;;15.87;54.81;95674.53;5009997;28;20037;-67
2021/07/16 02:31:30;;;;;;;14.70;10.40;;;;;;;15.90;55.24;95676.78;4992778;28;20463;-67
2021/07/16 02:33:56;;;;;;;15.43;9.55;;;;;;;15.59;54.08;95675.63;5008352;28;20030;-67
2021/07/16 02:36:23;;;;;;;14.65;11.10;;;;;;;15.31;56.67;95677.50;5010421;28;20029;-67
2021/07/16 02:38:48;;;;;;;13.13;10.40;;;;;;;15.05;57.14;95687.16;5009991;28;20487;-67
2021/07/16 02:41:14;;;;;;;15.30;9.90;;;;;;;14.94;58.33;95690.44;5009692;28;20084;-67
2021/07/16 02:43:40;;;;;;;12.13;9.13;;;;;;;15.14;57.17;95695.84;5010213;28;20029;-67
2021/07/16 02:46:06;;;;;;;15.65;10.73;;;;;;;15.17;58.33;95694.59;5009673;28;20067;-67
2021/07/16 02:48:31;;;;;;;17.77;11.48;;;;;;;15.33;58.09;95691.50;4997147;28;20546;-67
2021/07/16 02:50:56;;;;;;;15.50;10.05;;;;;;;15.10;58.85;95684.69;5009889;28;20046;-67
2021/07/16 02:53:22;;;;;;;13.52;9.35;;;;;;;15.29;55.59;95689.44;5008767;28;20038;-67
2021/07/16 02:55:50;;;;;;;9.80;6.95;;;;;;;15.42;54.56;95691.28;5008936;28;20038;-67
2021/07/16 02:58:16;;;;;;;14.45;9.32;;;;;;;15.20;56.28;95688.84;5009298;28;20041;-67
2021/07/16 03:00:41;;;;;;;14.13;9.60;;;;;;;15.18;58.28;95682.84;5008343;28;20423;-67
2021/07/16 03:03:06;;;;;;;12.77;9.18;;;;;;;15.55;56.98;95683.25;5009527;28;20038;-67
2021/07/16 03:05:35;;;;;;;12.23;8.40;;;;;;;15.99;55.05;95690.81;5009326;28;20037;-67
2021/07/16 03:08:00;;;;;;;11.90;8.63;;;;;;;15.93;55.23;95689.81;5009659;28;20149;-67
2021/07/16 03:10:36;;;;;;;12.73;8.25;;;;;;;15.77;56.29;95690.25;5007902;28;20042;-67
2021/07/16 03:13:04;;;;;;;11.18;8.02;;;;;;;15.85;55.29;95695.41;5010144;28;20029;-67
2021/07/16 03:15:29;;;;;;;13.00;9.43;;;;;;;15.59;55.68;95697.09;5009198;28;20071;-67
2021/07/16 03:17:55;;;;;;;12.07;7.82;;;;;;;15.64;55.68;95697.31;5004154;28;20026;-67
2021/07/16 03:20:23;;;;;;;11.13;7.82;;;;;;;15.53;56.24;95703.28;5009848;28;20136;-67
2021/07/16 03:22:49;;;;;;;12.88;8.35;;;;;;;15.54;56.79;95702.22;4987469;28;20050;-67
2021/07/16 03:25:15;;;;;;;10.38;7.20;;;;;;;15.84;53.60;95704.50;5001859;28;20073;-67
2021/07/16 03:27:41;;;;;;;12.68;8.68;;;;;;;15.36;56.10;95715.22;5009604;28;20076;-67
2021/07/16 03:30:08;;;;;;;11.75;8.65;;;;;;;15.90;55.71;95708.22;5008819;28;20037;-67
2021/07/16 03:32:34;;;;;;;9.45;7.25;;;;;;;16.06;53.02;95710.44;5008289;28;20026;-67
2021/07/16 03:35:00;;;;;;;12.73;8.30;;;;;;;15.84;54.72;95715.25;5008866;28;20037;-67
2021/07/16 03:37:25;;;;;;;7.97;6.45;;;;;;;15.75;54.10;95707.38;5009400;28;20033;-67
2021/07/16 03:39:51;;;;;;;10.45;8.13;;;;;;;15.70;55.43;95720.59;5016572;28;20022;-67
2021/07/16 03:42:18;;;;;;;9.35;6.65;;;;;;;16.00;52.78;95712.09;5008518;28;20049;-67
2021/07/16 03:44:43;;;;;;;9.37;7.33;;;;;;;15.93;53.59;95713.97;5009361;28;20036;-67
2021/07/16 03:47:14;;;;;;;9.20;7.28;;;;;;;15.97;54.64;95711.66;5007593;28;20403;-67
2021/07/16 03:49:40;;;;;;;9.05;7.20;;;;;;;15.86;55.07;95713.16;5008817;28;20037;-67
2021/07/16 03:52:06;;;;;;;10.07;7.85;;;;;;;15.97;54.31;95717.88;5008810;28;20049;-67
2021/07/16 03:54:31;;;;;;;7.53;5.88;;;;;;;16.10;52.71;95717.03;5008395;28;20042;-67
2021/07/16 03:56:57;;;;;;;10.00;7.65;;;;;;;15.83;54.52;95724.31;5008778;28;20048;-67
2021/07/16 03:59:22;;;;;;;9.85;7.32;;;;;;;15.50;55.26;95728.63;5008440;28;20044;-67
2021/07/16 04:01:48;;;;;;;9.52;7.22;;;;;;;15.45;55.77;95726.59;5008236;28;20076;-67
2021/07/16 04:04:15;;;;;;;9.43;6.50;;;;;;;15.70;55.19;95727.81;5008427;28;20057;-67
2021/07/16 04:06:40;;;;;;;13.37;9.07;;;;;;;14.96;56.73;95732.09;4990276;28;20082;-67
2021/07/16 04:11:50;;;;;;;8.07;6.50;;;;;;;15.07;56.48;95737.91;5008519;28;20407;-67
2021/07/16 04:14:15;;;;;;;11.77;6.85;;;;;;;14.93;57.30;95729.00;5007923;28;20041;-67
2021/07/16 04:16:41;;;;;;;9.40;7.07;;;;;;;14.75;57.90;95730.41;5007342;28;20037;-67
2021/07/16 04:19:06;;;;;;;10.98;6.88;;;;;;;14.60;57.27;95727.84;5003113;28;20364;-67
2021/07/16 04:21:31;;;;;;;11.15;7.07;;;;;;;14.55;59.16;95733.00;5007948;28;20049;-67
2021/07/16 04:23:57;;;;;;;13.38;6.35;;;;;;;14.67;58.83;95730.56;5007662;28;20042;-67
2021/07/16 04:26:22;;;;;;;9.73;5.93;;;;;;;14.63;58.47;95732.81;5007806;28;20049;-67
2021/07/16 04:28:48;;;;;;;10.32;5.50;;;;;;;14.28;58.47;95739.06;5007739;28;20041;-67
2021/07/16 04:31:13;;;;;;;9.40;5.80;;;;;;;14.34;58.75;95740.13;5007616;28;20101;-67
2021/07/16 04:33:39;;;;;;;21.92;5.80;;;;;;;14.46;58.59;95740.38;5006344;28;20042;-67
2021/07/16 04:36:04;;;;;;;29.95;5.70;;;;;;;14.13;59.73;95735.69;5007804;28;20029;-67
2021/07/16 04:38:29;;;;;;;10.00;5.85;;;;;;;13.57;62.54;95736.34;5006369;28;20068;-67
2021/07/16 04:40:55;;;;;;;7.22;5.13;;;;;;;13.32;62.85;95733.25;5007852;28;20029;-67
2021/07/16 04:43:20;;;;;;;8.57;5.07;;;;;;;13.73;60.51;95741.59;5007602;28;20061;-67
2021/07/16 04:45:46;;;;;;;6.70;5.00;;;;;;;13.77;61.23;95746.34;5007709;28;20367;-67
2021/07/16 04:48:11;;;;;;;7.45;5.80;;;;;;;13.64;61.69;95740.91;4994288;28;20041;-66
2021/07/16 04:50:38;;;;;;;7.63;5.75;;;;;;;13.60;61.88;95742.31;5008083;28;20088;-66
2021/07/16 04:53:03;;;;;;;7.57;5.32;;;;;;;13.63;61.60;95756.13;5008610;28;20030;-67
2021/07/16 04:55:29;;;;;;;6.78;5.60;;;;;;;13.72;61.42;95755.97;5008219;28;20372;-67
2021/07/16 04:57:54;;;;;;;6.88;5.07;;;;;;;13.97;60.62;95756.38;5008475;28;20049;-67
2021/07/16 05:00:20;;;;;;;6.53;4.47;;;;;;;13.89;60.23;95753.88;5008455;28;20522;-67
2021/07/16 05:02:46;;;;;;;6.50;5.65;;;;;;;13.59;60.68;95764.75;5008052;28;20804;-67
2021/07/16 05:05:11;;;;;;;5.47;4.45;;;;;;;13.64;61.02;95763.16;5007327;28;20026;-67
2021/07/16 05:07:37;;;;;;;6.50;4.97;;;;;;;13.97;59.84;95760.94;5007875;28;20089;-67
2021/07/16 05:10:04;;;;;;;6.53;4.80;;;;;;;14.41;58.26;95759.72;5007881;28;20041;-67
2021/07/16 05:12:29;;;;;;;9.70;5.88;;;;;;;14.03;59.73;95769.00;5006843;28;20763;-67
2021/07/16 05:14:55;;;;;;;5.30;4.50;;;;;;;14.45;58.17;95765.53;5008126;28;20034;-67
2021/07/16 05:17:20;;;;;;;5.55;4.43;;;;;;;14.49;57.65;95763.25;5004978;28;20038;-67
2021/07/16 05:19:46;;;;;;;7.53;4.60;;;;;;;14.27;59.10;95772.22;5011860;28;20026;-69
2021/07/16 05:22:11;;;;;;;5.70;4.55;;;;;;;14.11;58.88;95768.00;5011197;28;20619;-67
2021/07/16 05:24:37;;;;;;;5.15;4.20;;;;;;;14.28;58.77;95768.50;5011983;28;20034;-67
2021/07/16 05:27:03;;;;;;;4.40;3.53;;;;;;;;;;5011309;28;20042;-67
2021/07/16 05:29:28;;;;;;;5.30;4.07;;;;;;;14.59;57.46;95766.41;4998702;28;20663;-67
2021/07/16 05:31:54;;;;;;;4.55;4.05;;;;;;;14.74;56.96;95777.00;4995863;28;20045;-67
2021/07/16 05:34:19;;;;;;;4.68;4.05;;;;;;;14.79;57.06;95776.41;5007278;28;20042;-67
2021/07/16 05:36:45;;;;;;;6.15;4.50;;;;;;;15.10;56.58;95775.84;5005548;28;20037;-67
2021/07/16 05:39:10;;;;;;;6.13;4.68;;;;;;;15.36;54.74;95782.28;5006736;28;20042;-67
2021/07/16 05:41:36;;;;;;;5.55;4.63;;;;;;;15.77;53.21;95784.19;5008101;28;20129;-67
2021/07/16 05:44:02;;;;;;;5.18;4.00;;;;;;;15.83;54.20;95777.97;5008737;28;20041;-67
2021/07/16 05:46:29;;;;;;;7.25;3.90;;;;;;;15.94;53.68;95788.09;5007623;28;20038;-67
2021/07/16 05:48:55;;;;;;;7.38;4.60;;;;;;;15.56;54.44;95791.41;4996105;28;20030;-67
2021/07/16 05:51:20;;;;;;;5.10;4.20;;;;;;;15.35;54.76;95796.75;5007668;28;20053;-67
2021/07/16 05:53:46;;;;;;;5.78;3.75;;;;;;;15.96;52.80;95791.41;5007925;28;20041;-67
2021/07/16 05:56:11;;;;;;;7.45;4.85;;;;;;;15.87;54.01;95793.47;5008883;28;20451;-67
2021/07/16 05:58:37;;;;;;;5.30;3.95;;;;;;;16.25;51.78;95791.16;5007176;28;20038;-67
2021/07/16 06:01:02;;;;;;;7.75;4.45;;;;;;;16.58;51.57;95784.03;5008189;28;20030;-67
2021/07/16 06:03:28;;;;;;;5.38;4.20;;;;;;;16.17;52.27;95800.25;5005745;28;20053;-67
2021/07/16 06:05:53;;;;;;;5.10;3.78;;;;;;;16.12;52.48;95798.19;5004113;28;20069;-67
2021/07/16 06:08:18;;;;;;;4.95;4.30;;;;;;;16.30;52.31;95801.25;5013528;28;20046;-67
2021/07/16 06:10:44;;;;;;;4.35;3.88;;;;;;;16.46;51.49;95805.38;5003646;28;20457;-67
2021/07/16 06:13:09;;;;;;;6.85;4.72;;;;;;;16.15;53.46;95806.88;5004727;28;20064;-67
2021/07/16 06:15:35;;;;;;;4.93;3.80;;;;;;;16.16;52.83;95801.28;5013983;28;20034;-67
2021/07/16 06:18:00;;;;;;;5.45;4.10;;;;;;;16.10;52.57;95810.19;5012819;28;20044;-67
2021/07/16 06:20:26;;;;;;;6.45;4.50;;;;;;;15.91;53.78;95809.19;5004669;28;20395;-67
2021/07/16 06:22:51;;;;;;;5.03;3.70;;;;;;;16.15;53.15;95817.63;5003743;28;20126;-67
2021/07/16 06:25:20;;;;;;;5.53;3.80;;;;;;;15.90;53.66;95818.28;5003918;28;20279;-67
2021/07/16 06:27:45;;;;;;;5.20;3.45;;;;;;;15.86;53.87;95820.53;5004286;28;20036;-67
2021/07/16 06:30:12;;;;;;;5.15;3.55;;;;;;;15.75;53.33;95819.28;5004203;28;20120;-67
2021/07/16 06:32:37;;;;;;;3.83;3.35;;;;;;;15.74;53.92;95812.28;5004750;28;20432;-67
2021/07/16 06:35:04;;;;;;;4.30;3.60;;;;;;;15.86;53.76;95813.31;5003231;28;20119;-67
2021/07/16 06:37:29;;;;;;;4.63;3.53;;;;;;;15.94;53.57;95816.81;5004501;28;20485;-67
2021/07/16 06:39:56;;;;;;;4.13;3.55;;;;;;;16.03;52.18;95814.72;5003968;28;20030;-67
2021/07/16 06:42:22;;;;;;;4.05;3.25;;;;;;;16.31;52.35;95821.72;5006284;28;20060;-67
2021/07/16 06:44:47;;;;;;;4.75;3.25;;;;;;;16.52;52.01;95821.50;5003067;28;20082;-67
2021/07/16 06:47:13;;;;;;;8.38;3.78;;;;;;;16.50;51.46;95828.94;5004642;28;20430;-67
2021/07/16 06:49:38;;;;;;;3.97;3.30;;;;;;;16.59;51.25;95834.91;5002096;28;20590;-67
2021/07/16 06:52:04;;;;;;;3.83;3.40;;;;;;;16.67;51.26;95833.84;5001373;28;20572;-67
2021/07/16 06:54:30;;;;;;;12.93;4.47;;;;;;;16.61;51.23;95832.00;5012765;28;20105;-71
2021/07/16 06:56:55;;;;;;;7.32;3.97;;;;;;;16.81;50.91;95831.09;5003862;28;20102;-69
2021/07/16 06:59:21;;;;;;;24.83;6.32;;;;;;;17.22;49.51;95835.31;5005615;28;20108;-71
2021/07/16 07:01:46;;;;;;;6.88;4.55;;;;;;;17.15;49.76;95842.56;4995107;28;20084;-70
2021/07/16 07:04:12;;;;;;;5.47;4.25;;;;;;;16.95;50.38;95842.63;5009958;28;20025;-71
2021/07/16 07:06:37;;;;;;;5.43;4.05;;;;;;;17.10;49.82;95847.75;5002331;28;20566;-71
2021/07/16 07:09:03;;;;;;;4.20;3.20;;;;;;;17.33;49.93;95847.22;5005464;28;20094;-70
2021/07/16 07:11:28;;;;;;;7.22;4.18;;;;;;;17.34;49.13;95853.44;5001925;28;20094;-71
2021/07/16 07:13:54;;;;;;;5.10;3.85;;;;;;;17.26;49.30;95852.66;5002783;28;20611;-71
2021/07/16 07:16:20;;;;;;;4.80;3.65;;;;;;;17.35;48.87;95857.78;5015276;28;20326;-71
2021/07/16 07:18:45;;;;;;;4.45;3.70;;;;;;;17.26;49.36;95866.13;5006910;28;20480;-71
2021/07/16 07:21:12;;;;;;;5.75;3.95;;;;;;;15.93;52.34;95864.31;5004106;28;20041;-71
2021/07/16 07:23:38;;;;;;;4.87;3.37;;;;;;;16.68;50.93;95874.97;5001782;28;20090;-70
2021/07/16 07:26:03;;;;;;;6.68;3.75;;;;;;;16.85;50.30;95870.81;5002830;28;20345;-70
2021/07/16 07:28:28;;;;;;;5.80;3.67;;;;;;;16.62;50.79;95876.66;5002927;28;20579;-68
2021/07/16 07:30:54;;;;;;;7.28;4.07;;;;;;;16.64;50.67;95878.13;5005861;28;20113;-71
2021/07/16 07:33:19;;;;;;;4.55;3.38;;;;;;;17.27;49.94;95872.34;5002908;28;20524;-71
2021/07/16 07:35:45;;;;;;;4.28;2.72;;;;;;;17.45;49.91;95877.00;5003538;28;20578;-68
2021/07/16 07:38:10;;;;;;;3.65;3.25;;;;;;;17.38;49.92;95876.19;5004214;28;20102;-68
2021/07/16 07:40:36;;;;;;;3.28;2.90;;;;;;;17.59;49.11;95877.72;5001630;28;20597;-69
2021/07/16 07:43:01;;;;;;;4.68;3.10;;;;;;;17.66;48.54;95875.00;5001326;28;20041;-68
2021/07/16 07:45:27;;;;;;;3.13;2.70;;;;;;;17.39;48.87;95883.22;5043337;28;20087;-68
2021/07/16 07:47:52;;;;;;;3.60;3.17;;;;;;;17.11;49.92;95887.06;5001697;28;20045;-68
2021/07/16 07:50:18;;;;;;;3.45;3.00;;;;;;;17.40;49.43;95882.16;5004052;28;20037;-69
2021/07/16 07:52:44;;;;;;;6.97;3.00;;;;;;;17.40;48.66;95882.16;5008871;28;20029;-68
2021/07/16 07:55:10;;;;;;;3.88;3.00;;;;;;;17.45;49.37;95884.22;5016276;28;20040;-69
2021/07/16 07:57:36;;;;;;;7.50;3.20;;;;;;;17.50;48.73;95882.53;5003877;28;20454;-68
2021/07/16 08:00:13;;;;;;;3.42;3.13;;;;;;;17.74;47.75;95887.38;5004333;28;20095;-68
2021/07/16 08:02:39;;;;;;;3.15;2.85;;;;;;;17.92;48.09;95890.16;5001136;28;20407;-68
2021/07/16 08:05:04;;;;;;;4.57;2.63;;;;;;;17.83;48.39;95891.44;5001494;28;20029;-68
2021/07/16 08:07:30;;;;;;;4.47;2.83;;;;;;;17.88;48.16;95891.63;4999475;28;20144;-68
2021/07/16 08:09:55;;;;;;;3.45;2.53;;;;;;;17.24;49.15;95895.06;5001343;28;20030;-68
2021/07/16 08:12:21;;;;;;;3.15;2.80;;;;;;;17.38;49.25;95890.47;5009894;28;20325;-68
2021/07/16 08:14:46;;;;;;;4.55;3.10;;;;;;;17.23;49.37;95893.44;5001122;28;20529;-68
2021/07/16 08:17:11;;;;;;;4.50;2.97;;;;;;;17.22;49.90;95897.19;4997550;28;20406;-68
2021/07/16 08:19:37;;;;;;;3.80;2.75;;;;;;;17.44;48.50;95904.91;5004620;28;20041;-68
2021/07/16 08:22:02;;;;;;;2.90;2.55;;;;;;;17.44;48.94;95901.41;5001491;28;20491;-68
2021/07/16 08:24:28;;;;;;;3.55;3.00;;;;;;;17.33;49.38;95902.94;4998051;28;20038;-68
2021/07/16 08:26:53;;;;;;;3.20;2.90;;;;;;;17.31;49.09;95892.38;4998801;28;20042;-68
2021/07/16 08:29:19;;;;;;;3.33;2.40;;;;;;;17.32;49.38;95903.94;4991996;28;20116;-68
2021/07/16 08:31:44;;;;;;;6.75;3.15;;;;;;;17.24;49.25;95905.84;4989860;28;20152;-68
2021/07/16 08:34:10;;;;;;;3.03;2.72;;;;;;;17.01;49.68;95904.47;5000809;28;20117;-69
2021/07/16 08:36:36;;;;;;;4.47;3.33;;;;;;;16.61;50.75;95915.31;5001092;28;20463;-68
2021/07/16 08:39:03;;;;;;;4.25;2.90;;;;;;;16.50;51.32;95925.69;5030793;28;20029;-68
2021/07/16 08:41:28;;;;;;;7.00;3.50;;;;;;;16.52;51.13;95928.13;4997085;28;20317;-68
2021/07/16 08:43:54;;;;;;;5.60;3.25;;;;;;;16.65;51.21;95929.97;5001462;28;20273;-68
2021/07/16 08:46:20;;;;;;;5.90;3.30;;;;;;;16.68;51.19;95928.72;5001763;28;20037;-67
2021/07/16 08:48:48;;;;;;;6.18;3.42;;;;;;;16.71;51.12;95933.69;5000592;28;20026;-68
2021/07/16 08:51:18;;;;;;;4.28;3.33;;;;;;;16.87;50.56;95935.13;5003038;28;20124;-68
2021/07/16 08:53:44;;;;;;;4.15;3.10;;;;;;;16.88;50.16;95944.84;5003426;28;20136;-68
2021/07/16 08:56:10;;;;;;;3.72;3.20;;;;;;;16.85;50.69;95938.03;5000333;28;20036;-68
2021/07/16 08:58:36;;;;;;;4.43;2.95;;;;;;;17.16;49.77;95935.69;5000300;28;20491;-68
2021/07/16 09:01:01;;;;;;;3.45;2.97;;;;;;;17.15;49.55;95939.41;5009594;28;20052;-67
2021/07/16 09:03:28;;;;;;;4.45;3.53;;;;;;;17.19;49.41;95937.94;5006568;28;20566;-68
2021/07/16 09:05:54;;;;;;;4.22;3.35;;;;;;;17.07;49.41;95940.47;5008268;28;20403;-67
2021/07/16 09:08:22;;;;;;;3.90;3.42;;;;;;;16.93;49.93;95947.72;5003956;28;20049;-68
2021/07/16 09:10:50;;;;;;;6.38;3.70;;;;;;;16.92;50.82;95940.69;4999969;28;20125;-67
2021/07/16 09:13:15;;;;;;;;;;;;;;;16.81;50.70;95946.72;5004735;28;20029;-71
2021/07/16 09:16:07;;;;;;;4.68;3.60;;;;;;;16.39;51.25;95945.13;5006193;28;20004;-73
2021/07/16 09:18:32;;;;;;;4.45;3.25;;;;;;;15.95;52.70;95941.97;4999329;28;20044;-71
2021/07/16 09:21:01;;;;;;;3.92;3.40;;;;;;;16.08;52.51;95946.53;5001565;28;20034;-70
2021/07/16 09:23:35;;;;;;;5.10;3.40;;;;;;;15.85;53.25;95948.53;5004332;28;20085;-72
2021/07/16 09:26:12;;;;;;;5.18;3.47;;;;;;;15.92;53.47;95945.88;5003179;28;20075;-71
2021/07/16 09:28:45;;;;;;;4.68;3.53;;;;;;;15.65;53.19;95931.56;5003538;28;20134;-70
2021/07/16 09:31:22;;;;;;;5.22;3.35;;;;;;;15.59;54.38;95939.41;5001933;28;20074;-71
2021/07/16 09:33:49;;;;;;;5.50;3.90;;;;;;;15.38;54.63;95939.50;5007985;28;20445;-71
2021/07/16 09:36:34;;;;;;;5.80;3.63;;;;;;;15.48;54.87;95939.97;5004553;28;20125;-71
2021/07/16 09:39:13;;;;;;;5.35;3.70;;;;;;;15.32;55.23;95943.81;5001688;28;20038;-70
2021/07/16 09:41:55;;;;;;;5.00;3.70;;;;;;;15.52;54.80;95943.91;4998524;28;20048;-71
2021/07/16 09:44:35;;;;;;;4.65;3.88;;;;;;;15.71;54.47;95949.56;4996903;28;20330;-70
2021/07/16 09:47:16;;;;;;;5.88;4.20;;;;;;;15.45;54.61;95949.25;5006112;28;20135;-71
2021/07/16 09:49:47;;;;;;;6.22;4.30;;;;;;;15.39;54.91;95946.53;4995739;28;20465;-70
2021/07/16 09:52:15;;;;;;;6.35;4.63;;;;;;;14.80;56.76;95952.25;4983627;28;20050;-70
2021/07/16 09:55:29;;;;;;;6.63;4.32;;;;;;;14.98;56.33;95959.75;4985996;28;20050;-71
2021/07/16 09:57:55;;;;;;;5.18;4.00;;;;;;;15.26;55.61;95955.38;5003962;28;20168;-71
2021/07/16 10:00:22;;;;;;;5.63;3.95;;;;;;;15.51;54.36;95957.50;5009123;28;20549;-71
2021/07/16 10:02:54;;;;;;;6.38;4.00;;;;;;;15.77;53.63;95962.16;5003438;28;20060;-71
2021/07/16 10:05:20;;;;;;;6.88;4.00;;;;;;;15.84;53.59;95960.31;4982030;28;20555;-70
2021/07/16 10:07:45;;;;;;;7.22;4.55;;;;;;;15.49;54.21;95965.75;4999532;28;20042;-71
2021/07/16 10:10:12;;;;;;;8.10;4.40;;;;;;;15.58;54.23;95966.44;5011296;28;20040;-70
2021/07/16 10:12:39;;;;;;;5.70;4.30;;;;;;;15.53;54.18;95979.63;5002618;28;20072;-70
2021/07/16 10:15:05;;;;;;;6.72;4.43;;;;;;;15.59;54.15;95973.47;5005170;28;20128;-70
2021/07/16 10:17:30;;;;;;;8.10;4.30;;;;;;;15.68;53.90;95974.94;5001810;28;20374;-70
2021/07/16 10:19:55;;;;;;;7.22;4.22;;;;;;;15.52;54.39;95977.94;5002135;28;20478;-71
2021/07/16 10:22:21;;;;;;;6.53;4.32;;;;;;;15.03;55.68;95992.16;5004892;28;20038;-70
2021/07/16 10:24:46;;;;;;;5.55;4.25;;;;;;;15.01;56.10;95980.81;5005195;28;20037;-71
2021/07/16 10:27:12;;;;;;;5.72;4.50;;;;;;;15.23;55.42;95978.88;5001848;28;20041;-71
2021/07/16 10:29:42;;;;;;;6.75;4.72;;;;;;;15.61;53.88;95974.09;5001939;28;20099;-70
2021/07/16 10:32:08;;;;;;;6.32;4.70;;;;;;;15.80;53.85;95985.06;5004071;28;20052;-71
2021/07/16 10:34:37;;;;;;;5.65;4.68;;;;;;;16.31;52.22;95989.09;4985387;28;20424;-71
2021/07/16 10:37:11;;;;;;;5.72;4.65;;;;;;;16.82;51.18;95989.50;5000946;28;20029;-71
2021/07/16 10:39:48;;;;;;;8.77;5.05;;;;;;;16.85;50.81;95990.97;5010702;28;20113;-70
2021/07/16 10:42:25;;;;;;;6.70;4.68;;;;;;;16.47;51.53;96000.50;5004816;28;20652;-70
2021/07/16 10:44:51;;;;;;;6.90;4.55;;;;;;;16.15;52.51;96005.59;5007319;28;20486;-70
2021/07/16 10:47:38;;;;;;;6.53;4.28;;;;;;;16.27;51.90;95998.59;5002187;28;20112;-69
2021/07/16 10:50:05;;;;;;;5.57;4.20;;;;;;;16.47;51.79;96009.41;5003148;28;20034;-70
2021/07/16 10:52:50;;;;;;;5.32;4.15;;;;;;;16.86;50.82;96016.84;5003655;28;20086;-67
2021/07/16 10:55:28;;;;;;;5.80;4.60;;;;;;;16.68;50.43;96020.13;5003547;28;20649;-66
2021/07/16 10:57:53;;;;;;;;;;;;;;;16.79;51.07;96021.38;5007944;28;20112;-67
2021/07/16 11:00:37;;;;;;;6.90;4.60;;;;;;;16.79;50.01;96030.25;5002602;28;20442;-67
2021/07/16 11:03:12;;;;;;;5.38;4.00;;;;;;;16.79;51.10;96043.69;5012692;28;20099;-67
2021/07/16 11:05:38;;;;;;;6.15;4.43;;;;;;;17.08;49.85;96043.47;5000905;28;20101;-66
2021/07/16 11:08:24;;;;;;;7.63;4.07;;;;;;;16.98;50.22;96043.91;5001857;28;20145;-66
2021/07/16 11:10:50;;;;;;;9.00;4.43;;;;;;;16.84;50.22;96046.59;5035291;28;20110;-66
2021/07/16 11:13:31;;;;;;;6.30;4.30;;;;;;;16.35;51.79;96037.91;5002049;28;20086;-66
2021/07/16 11:15:57;;;;;;;7.57;4.80;;;;;;;15.81;53.04;96027.81;5000021;28;20106;-66
2021/07/16 11:18:27;;;;;;;10.32;4.68;;;;;;;15.56;53.63;96035.56;4983748;28;20109;-66
2021/07/16 11:20:52;;;;;;;6.93;4.70;;;;;;;15.55;54.07;96037.41;5000851;28;20666;-66
2021/07/16 11:23:19;;;;;;;5.00;4.45;;;;;;;15.37;54.94;96040.63;5002723;28;20121;-66
2021/07/16 11:25:45;;;;;;;5.97;4.37;;;;;;;15.58;54.29;96036.22;5004958;28;20625;-66
2021/07/16 11:28:10;;;;;;;10.40;4.82;;;;;;;15.34;54.90;96038.34;5002058;28;20034;-67
2021/07/16 11:30:36;;;;;;;7.05;4.97;;;;;;;15.70;53.89;96042.66;5001004;28;20042;-67
2021/07/16 11:33:03;;;;;;;8.60;4.85;;;;;;;15.67;54.14;96048.41;5002304;28;20105;-67